Time;durP1;ratioP1;P1;durP2;ratioP2;P2;SDS_P1;SDS_P2;PMS_P1;PMS_P2;Temp;Humidity;BMP_temperature;BMP_pressure;BME280_temperature;BME280_humidity;BME280_pressure;Samples;Min_cycle;Max_cycle;Signal;HPM_P1;HPM_P2
2021/08/08 00:00:24;;;;;;;2.13;1.60;;;17.60;99.90;;;;;;4824885;29;20227;-69
2021/08/08 00:02:50;;;;;;;1.63;1.07;;;17.70;99.90;;;;;;4824641;29;20788;-69
2021/08/08 00:05:16;;;;;;;1.60;1.27;;;17.70;99.90;;;;;;4824891;29;20227;-69
2021/08/08 00:07:42;;;;;;;2.30;1.40;;;17.60;99.90;;;;;;4824315;29;20227;-69
2021/08/08 00:10:11;;;;;;;2.30;1.10;;;17.60;99.90;;;;;;4824860;29;20467;-68
2021/08/08 00:12:37;;;;;;;4.03;1.20;;;17.60;99.90;;;;;;4824674;29;20513;-68
2021/08/08 00:15:07;;;;;;;1.57;1.43;;;17.60;99.90;;;;;;4818465;29;20520;-69
2021/08/08 00:17:34;;;;;;;1.50;1.40;;;17.50;99.90;;;;;;4824676;29;20464;-69
2021/08/08 00:19:59;;;;;;;1.33;1.23;;;17.40;99.90;;;;;;4824565;29;20467;-69
2021/08/08 00:22:25;;;;;;;2.50;1.30;;;17.40;99.90;;;;;;4824527;29;20476;-68
2021/08/08 00:24:51;;;;;;;2.23;2.03;;;17.30;99.90;;;;;;4824457;29;20630;-68
2021/08/08 00:27:16;;;;;;;1.57;1.43;;;17.30;99.90;;;;;;4824977;29;20230;-68
2021/08/08 00:29:42;;;;;;;1.47;1.37;;;17.20;99.90;;;;;;4824097;29;20279;-69
2021/08/08 00:32:08;;;;;;;1.87;1.57;;;17.20;99.90;;;;;;4823505;29;20244;-69
2021/08/08 00:34:35;;;;;;;3.33;1.73;;;17.10;99.90;;;;;;4808888;29;20234;-68
2021/08/08 00:37:01;;;;;;;2.20;1.50;;;17.10;99.90;;;;;;4810952;29;20857;-68
2021/08/08 00:39:28;;;;;;;1.33;1.23;;;17.00;99.90;;;;;;4832922;29;20239;-69
2021/08/08 00:41:55;;;;;;;1.70;1.60;;;17.00;99.90;;;;;;4808943;29;20476;-69
2021/08/08 00:44:20;;;;;;;3.77;2.00;;;16.90;99.90;;;;;;4808984;29;20473;-69
2021/08/08 00:46:47;;;;;;;2.00;1.80;;;16.90;99.90;;;;;;4823955;29;20227;-68
2021/08/08 00:49:13;;;;;;;2.20;1.60;;;16.90;99.90;;;;;;4823817;29;20467;-68
2021/08/08 00:51:40;;;;;;;2.00;1.80;;;16.90;99.90;;;;;;4809007;29;20877;-69
2021/08/08 00:54:08;;;;;;;1.90;1.70;;;16.80;99.90;;;;;;4823415;29;20231;-68
2021/08/08 00:56:38;;;;;;;2.00;1.30;;;16.80;99.90;;;;;;4824335;29;20461;-67
2021/08/08 00:59:05;;;;;;;2.43;2.23;;;16.70;99.90;;;;;;4806029;29;20453;-67
2021/08/08 01:01:43;;;;;;;2.10;1.97;;;16.70;99.90;;;;;;4806090;29;20470;-69
2021/08/08 01:04:16;;;;;;;1.80;1.70;;;16.70;99.90;;;;;;4818240;29;20460;-69
2021/08/08 01:06:51;;;;;;;3.50;1.90;;;16.70;99.90;;;;;;4808600;29;20993;-69
2021/08/08 01:09:23;;;;;;;6.60;2.00;;;16.70;99.90;;;;;;4829335;29;20472;-69
2021/08/08 01:11:49;;;;;;;3.23;2.00;;;16.60;99.90;;;;;;4823277;29;20534;-68
2021/08/08 01:14:17;;;;;;;4.27;2.30;;;16.60;99.90;;;;;;4824262;29;20468;-68
2021/08/08 01:16:49;;;;;;;2.20;2.07;;;16.50;99.90;;;;;;4809174;29;20996;-67
2021/08/08 01:19:18;;;;;;;4.23;2.00;;;16.50;99.90;;;;;;4823238;29;20985;-68
2021/08/08 01:21:47;;;;;;;1.90;1.80;;;16.40;99.90;;;;;;4807922;29;20572;-68
2021/08/08 01:24:13;;;;;;;2.10;1.90;;;16.40;99.90;;;;;;4823818;29;20464;-69
2021/08/08 01:26:44;;;;;;;1.70;1.60;;;16.40;99.90;;;;;;4804990;29;20533;-68
2021/08/08 01:29:10;;;;;;;2.30;2.10;;;16.40;99.90;;;;;;4823305;29;20516;-69
2021/08/08 01:31:36;;;;;;;2.40;2.10;;;16.40;99.90;;;;;;4808332;29;20464;-69
2021/08/08 01:34:02;;;;;;;2.83;2.50;;;16.30;99.90;;;;;;4823472;29;20254;-69
2021/08/08 01:36:28;;;;;;;2.90;2.27;;;16.30;99.90;;;;;;4823690;29;20234;-69
2021/08/08 01:39:05;;;;;;;3.90;2.23;;;16.30;99.90;;;;;;4808596;29;20227;-69
2021/08/08 01:41:44;;;;;;;2.43;2.10;;;16.30;99.90;;;;;;4823443;29;20230;-68
2021/08/08 01:44:12;;;;;;;2.30;1.73;;;16.30;99.90;;;;;;4808130;29;20460;-68
2021/08/08 01:46:43;;;;;;;2.10;2.00;;;16.30;99.90;;;;;;4808685;29;20465;-68
2021/08/08 01:49:18;;;;;;;1.83;1.70;;;16.30;99.90;;;;;;4805169;29;20464;-69
2021/08/08 01:51:44;;;;;;;3.17;2.03;;;16.40;99.90;;;;;;4833244;29;20468;-68
2021/08/08 01:54:14;;;;;;;2.00;1.90;;;16.40;99.90;;;;;;4819468;29;20516;-68
2021/08/08 01:56:42;;;;;;;2.67;2.03;;;16.40;99.90;;;;;;4807894;29;21019;-69
2021/08/08 01:59:08;;;;;;;4.43;2.27;;;16.40;99.90;;;;;;4807532;29;20976;-69
2021/08/08 02:01:35;;;;;;;2.20;2.10;;;16.40;99.90;;;;;;4808082;29;20496;-69
2021/08/08 02:04:16;;;;;;;2.93;2.50;;;16.30;99.90;;;;;;4808328;29;20465;-68
2021/08/08 02:06:42;;;;;;;3.17;2.20;;;16.30;99.90;;;;;;4822838;29;20911;-69
2021/08/08 02:09:09;;;;;;;2.90;2.23;;;16.30;99.90;;;;;;4808034;29;20496;-69
2021/08/08 02:11:35;;;;;;;4.70;2.80;;;16.30;99.90;;;;;;4807724;29;20471;-68
2021/08/08 02:14:06;;;;;;;2.10;2.00;;;16.30;99.90;;;;;;4807590;29;20461;-68
2021/08/08 02:16:34;;;;;;;4.30;2.90;;;16.20;99.90;;;;;;4807810;29;20973;-69
2021/08/08 02:19:02;;;;;;;5.83;2.40;;;16.20;99.90;;;;;;4822320;29;20448;-69
2021/08/08 02:21:34;;;;;;;2.63;2.43;;;16.20;99.90;;;;;;4808500;29;20533;-68
2021/08/08 02:24:00;;;;;;;2.83;2.63;;;16.20;99.90;;;;;;4806632;29;20508;-68
2021/08/08 02:26:28;;;;;;;3.23;2.67;;;16.20;99.90;;;;;;4808152;29;20247;-68
2021/08/08 02:28:58;;;;;;;3.60;2.80;;;16.20;99.90;;;;;;4822614;29;20467;-69
2021/08/08 02:31:25;;;;;;;2.40;2.20;;;16.20;99.90;;;;;;4824840;29;20525;-68
2021/08/08 02:33:51;;;;;;;2.57;2.37;;;16.10;99.90;;;;;;4825542;29;20483;-67
2021/08/08 02:36:16;;;;;;;3.77;2.80;;;16.10;99.90;;;;;;4818050;29;20231;-69
2021/08/08 02:38:46;;;;;;;3.17;2.40;;;16.10;99.90;;;;;;4833644;29;20617;-67
2021/08/08 02:41:12;;;;;;;3.30;2.30;;;16.20;99.90;;;;;;4826289;29;20504;-69
2021/08/08 02:43:39;;;;;;;2.70;2.20;;;16.10;99.90;;;;;;4811055;29;20292;-69
2021/08/08 02:46:05;;;;;;;2.20;2.10;;;16.10;99.90;;;;;;4810821;29;20452;-69
2021/08/08 02:48:32;;;;;;;2.70;2.50;;;16.10;99.90;;;;;;4826497;29;20547;-69
2021/08/08 02:50:59;;;;;;;3.10;2.83;;;16.10;99.90;;;;;;4807774;29;20227;-68
2021/08/08 02:53:26;;;;;;;2.70;2.50;;;16.10;99.90;;;;;;4793408;29;20477;-68
2021/08/08 02:55:52;;;;;;;3.33;3.00;;;16.10;99.90;;;;;;4808029;29;20484;-69
2021/08/08 02:58:18;;;;;;;3.30;2.80;;;16.10;99.90;;;;;;4808311;29;20220;-68
2021/08/08 03:00:43;;;;;;;3.10;2.67;;;16.10;99.90;;;;;;4797600;29;20280;-69
2021/08/08 03:03:09;;;;;;;4.07;3.03;;;16.10;99.90;;;;;;4818232;29;20223;-68
2021/08/08 03:05:35;;;;;;;3.93;2.73;;;16.10;99.90;;;;;;4810277;29;20302;-68
2021/08/08 03:08:04;;;;;;;4.13;2.40;;;16.10;99.90;;;;;;4825414;29;20452;-68
2021/08/08 03:10:30;;;;;;;3.67;2.60;;;16.10;99.90;;;;;;4825925;29;20460;-69
2021/08/08 03:12:56;;;;;;;2.90;2.70;;;16.20;99.90;;;;;;4815284;29;20464;-67
2021/08/08 03:15:22;;;;;;;3.50;2.43;;;16.20;99.90;;;;;;4808197;29;20226;-69
2021/08/08 03:17:48;;;;;;;2.83;2.50;;;16.20;99.90;;;;;;4807197;29;20219;-68
2021/08/08 03:20:15;;;;;;;2.70;2.50;;;16.10;99.90;;;;;;4825841;29;20532;-68
2021/08/08 03:22:41;;;;;;;2.40;2.13;;;16.10;99.90;;;;;;4825525;29;20231;-68
2021/08/08 03:25:07;;;;;;;3.53;2.70;;;16.10;99.90;;;;;;4810422;29;20466;-68
2021/08/08 03:27:33;;;;;;;2.97;2.70;;;16.10;99.90;;;;;;4825019;29;20610;-67
2021/08/08 03:29:59;;;;;;;2.43;2.23;;;16.20;99.90;;;;;;4809945;29;20484;-67
2021/08/08 03:32:26;;;;;;;2.60;2.37;;;16.20;99.90;;;;;;4810581;29;20480;-68
2021/08/08 03:34:52;;;;;;;2.70;2.50;;;16.20;99.90;;;;;;4817415;29;20513;-69
2021/08/08 03:37:18;;;;;;;4.23;2.77;;;16.20;99.90;;;;;;4812221;29;20234;-68
2021/08/08 03:39:44;;;;;;;4.90;2.00;;;16.10;99.90;;;;;;4818205;29;20460;-68
2021/08/08 03:42:10;;;;;;;2.60;2.03;;;16.10;99.90;;;;;;4809895;29;20258;-70
2021/08/08 03:44:38;;;;;;;4.17;2.00;;;16.10;99.90;;;;;;4810194;29;20231;-71
2021/08/08 03:47:03;;;;;;;2.70;2.40;;;16.00;99.90;;;;;;4841343;29;20516;-68
2021/08/08 03:49:29;;;;;;;4.10;2.43;;;16.00;99.90;;;;;;4810383;29;20229;-66
2021/08/08 03:51:55;;;;;;;2.10;2.00;;;16.00;99.90;;;;;;4809523;29;20314;-68
2021/08/08 03:54:21;;;;;;;5.03;2.13;;;16.00;99.90;;;;;;4825552;29;20610;-68
2021/08/08 03:56:47;;;;;;;2.40;1.80;;;16.00;99.90;;;;;;4824884;29;20656;-69
2021/08/08 03:59:12;;;;;;;2.13;1.73;;;16.00;99.90;;;;;;4824630;29;20302;-69
2021/08/08 04:01:39;;;;;;;2.40;1.93;;;16.00;99.90;;;;;;4824682;29;20255;-68
2021/08/08 04:04:06;;;;;;;1.90;1.80;;;16.00;99.90;;;;;;4824784;29;20456;-69
2021/08/08 04:06:32;;;;;;;1.97;1.50;;;16.00;99.90;;;;;;4810354;29;20512;-68
2021/08/08 04:08:57;;;;;;;2.07;1.80;;;16.00;99.90;;;;;;4824447;29;20275;-68
2021/08/08 04:11:23;;;;;;;2.23;1.93;;;16.10;99.90;;;;;;4806749;29;20609;-68
2021/08/08 04:13:49;;;;;;;1.90;1.80;;;16.10;99.90;;;;;;4821617;29;20481;-69
2021/08/08 04:16:15;;;;;;;2.23;2.13;;;16.10;99.90;;;;;;4824495;29;20671;-69
2021/08/08 04:18:41;;;;;;;2.10;1.90;;;16.10;99.90;;;;;;4824917;29;20551;-68
2021/08/08 04:21:07;;;;;;;2.57;2.30;;;16.10;99.90;;;;;;4809507;29;20713;-68
2021/08/08 04:23:33;;;;;;;4.80;2.07;;;16.00;99.90;;;;;;4824945;29;20755;-68
2021/08/08 04:25:58;;;;;;;2.47;1.73;;;16.00;99.90;;;;;;4824406;29;20254;-69
2021/08/08 04:28:24;;;;;;;3.07;2.10;;;15.90;99.90;;;;;;4825052;29;20223;-67
2021/08/08 04:30:50;;;;;;;3.73;2.30;;;15.90;99.90;;;;;;4808779;29;20227;-69
2021/08/08 04:33:15;;;;;;;2.63;2.43;;;15.80;99.90;;;;;;4824205;29;20234;-68
2021/08/08 04:35:41;;;;;;;2.90;2.23;;;15.80;99.90;;;;;;4824421;29;20227;-68
2021/08/08 04:38:08;;;;;;;4.10;2.17;;;15.70;99.90;;;;;;4811068;29;20460;-68
2021/08/08 04:40:37;;;;;;;2.60;2.40;;;15.70;99.90;;;;;;4824302;29;20494;-68
2021/08/08 04:43:05;;;;;;;2.83;2.63;;;15.70;99.90;;;;;;4808866;29;20531;-67
2021/08/08 04:45:31;;;;;;;2.50;2.30;;;15.60;99.90;;;;;;4809452;29;20230;-67
2021/08/08 04:47:57;;;;;;;3.00;2.73;;;15.60;99.90;;;;;;4822291;29;20925;-69
2021/08/08 04:50:23;;;;;;;2.33;2.23;;;15.60;99.90;;;;;;4815304;29;20539;-69
2021/08/08 04:52:48;;;;;;;2.43;2.23;;;15.70;99.90;;;;;;4838136;29;20263;-69
2021/08/08 04:55:16;;;;;;;2.57;2.20;;;15.70;99.90;;;;;;4808287;29;20631;-68
2021/08/08 04:57:42;;;;;;;2.47;2.27;;;15.70;99.90;;;;;;4824079;29;20475;-68
2021/08/08 05:00:12;;;;;;;2.80;2.40;;;15.70;99.90;;;;;;4809175;29;20829;-69
2021/08/08 05:02:44;;;;;;;2.90;2.60;;;15.80;99.90;;;;;;4808554;29;20483;-69
2021/08/08 05:05:10;;;;;;;5.90;2.67;;;15.80;99.90;;;;;;4808745;29;20551;-68
2021/08/08 05:07:39;;;;;;;3.97;2.63;;;15.80;99.90;;;;;;4809229;29;20469;-68
2021/08/08 05:10:10;;;;;;;3.37;2.23;;;15.90;99.90;;;;;;4808432;29;20811;-67
2021/08/08 05:12:36;;;;;;;2.70;2.50;;;15.90;99.90;;;;;;4810398;29;20468;-68
2021/08/08 05:15:22;;;;;;;3.40;2.67;;;15.90;99.90;;;;;;5080571;27;20621;-65
2021/08/08 05:17:48;;;;;;;5.63;2.80;;;15.90;99.90;;;;;;5065958;28;20996;-66
2021/08/08 05:20:16;;;;;;;2.20;2.10;;;15.90;99.90;;;;;;5066255;28;20528;-68
2021/08/08 05:22:42;;;;;;;3.70;2.30;;;15.90;99.90;;;;;;5066239;28;20226;-69
2021/08/08 05:25:09;;;;;;;4.33;2.90;;;15.90;99.90;;;;;;5066026;28;20524;-68
2021/08/08 05:27:35;;;;;;;3.03;2.53;;;16.00;99.90;;;;;;5065327;28;20438;-67
2021/08/08 05:30:06;;;;;;;4.20;2.83;;;16.00;99.90;;;;;;5069053;28;20486;-67
2021/08/08 05:32:33;;;;;;;4.20;2.93;;;16.00;99.90;;;;;;5069898;28;20455;-67
2021/08/08 05:35:01;;;;;;;2.80;2.50;;;16.00;99.90;;;;;;5085696;28;20464;-67
2021/08/08 05:37:26;;;;;;;2.90;2.30;;;16.00;99.90;;;;;;5085120;28;21034;-67
2021/08/08 05:39:52;;;;;;;4.57;2.80;;;16.10;99.90;;;;;;5068485;28;20456;-66
2021/08/08 05:42:19;;;;;;;2.63;2.43;;;16.10;99.90;;;;;;5085196;28;20218;-67
2021/08/08 05:44:45;;;;;;;2.90;2.50;;;16.10;99.90;;;;;;5082757;28;20757;-67
2021/08/08 05:47:11;;;;;;;2.90;2.67;;;16.10;99.90;;;;;;5069316;28;20528;-67
2021/08/08 05:49:36;;;;;;;3.13;2.63;;;16.20;99.90;;;;;;5085876;28;20226;-66
2021/08/08 05:52:05;;;;;;;2.93;2.50;;;16.20;99.90;;;;;;5067887;28;20221;-65
2021/08/08 05:54:32;;;;;;;2.67;2.47;;;16.20;99.90;;;;;;5066202;28;20464;-66
2021/08/08 05:56:58;;;;;;;5.43;3.13;;;16.20;99.90;;;;;;5067340;28;20453;-66
2021/08/08 05:59:24;;;;;;;4.43;3.57;;;16.20;99.90;;;;;;5068790;28;20967;-67
2021/08/08 06:01:50;;;;;;;4.43;3.70;;;16.30;99.90;;;;;;5084748;28;20463;-67
2021/08/08 06:04:16;;;;;;;5.70;3.87;;;16.30;99.90;;;;;;5085873;28;20551;-67
2021/08/08 06:06:42;;;;;;;9.00;3.50;;;16.20;99.90;;;;;;5084404;28;20514;-66
2021/08/08 06:09:08;;;;;;;4.07;3.33;;;16.30;99.90;;;;;;5068241;28;20211;-67
2021/08/08 06:11:34;;;;;;;3.90;3.30;;;16.30;99.90;;;;;;5080314;28;20211;-67
2021/08/08 06:14:00;;;;;;;4.80;3.77;;;16.30;99.90;;;;;;5084131;28;20821;-68
2021/08/08 06:16:25;;;;;;;3.63;3.30;;;16.30;99.90;;;;;;5068690;28;20674;-67
2021/08/08 06:18:51;;;;;;;4.03;3.63;;;16.30;99.90;;;;;;5084919;28;20282;-67
2021/08/08 06:21:17;;;;;;;3.93;3.63;;;16.30;99.90;;;;;;5068204;28;20286;-67
2021/08/08 06:23:50;;;;;;;4.33;3.93;;;16.40;99.90;;;;;;5067621;28;20221;-66
2021/08/08 06:26:16;;;;;;;4.77;4.17;;;16.40;99.90;;;;;;5053976;28;20450;-67
2021/08/08 06:28:41;;;;;;;6.07;3.97;;;16.30;99.90;;;;;;5068049;28;20220;-67
2021/08/08 06:31:07;;;;;;;5.47;4.17;;;16.30;99.90;;;;;;5033905;28;20211;-66
2021/08/08 06:33:33;;;;;;;3.87;3.57;;;16.30;99.90;;;;;;5070020;28;20291;-67
2021/08/08 06:35:59;;;;;;;8.73;4.63;;;16.40;99.90;;;;;;5054219;28;20527;-68
2021/08/08 06:38:25;;;;;;;6.83;4.07;;;16.40;99.90;;;;;;5071373;28;20987;-67
2021/08/08 06:40:51;;;;;;;5.50;3.70;;;16.40;99.90;;;;;;5070397;28;20246;-67
2021/08/08 06:43:17;;;;;;;4.10;3.80;;;16.50;99.90;;;;;;5070427;28;20230;-65
2021/08/08 06:45:45;;;;;;;4.37;3.97;;;16.50;99.90;;;;;;5067863;28;20449;-69
2021/08/08 06:48:11;;;;;;;3.87;3.43;;;16.50;99.90;;;;;;5054393;28;20445;-69
2021/08/08 06:50:37;;;;;;;4.87;4.00;;;16.50;99.90;;;;;;5070235;28;20693;-68
2021/08/08 06:53:03;;;;;;;4.33;3.93;;;16.50;99.90;;;;;;5070384;28;20442;-68
2021/08/08 06:55:29;;;;;;;4.07;3.67;;;16.50;99.90;;;;;;5054346;28;20299;-67
2021/08/08 06:57:55;;;;;;;4.67;3.33;;;16.50;99.90;;;;;;5050458;28;20265;-69
2021/08/08 07:00:20;;;;;;;3.80;3.37;;;16.50;99.90;;;;;;5060330;28;20742;-70
2021/08/08 07:02:46;;;;;;;5.83;3.93;;;16.60;99.90;;;;;;5053046;28;20223;-67
2021/08/08 07:05:12;;;;;;;3.50;3.20;;;16.60;99.90;;;;;;5070127;28;20211;-67
2021/08/08 07:07:38;;;;;;;3.40;3.20;;;16.60;99.90;;;;;;5070560;28;20211;-67
2021/08/08 07:10:05;;;;;;;4.63;3.43;;;16.60;99.90;;;;;;5053843;28;20448;-66
2021/08/08 07:12:32;;;;;;;5.97;3.30;;;16.60;99.90;;;;;;5070071;28;20445;-66
2021/08/08 07:14:58;;;;;;;3.60;2.90;;;16.60;99.90;;;;;;5069267;28;20481;-67
2021/08/08 07:17:24;;;;;;;3.90;3.30;;;16.60;99.90;;;;;;5070458;28;20450;-66
2021/08/08 07:19:50;;;;;;;3.00;2.70;;;16.70;99.90;;;;;;5051088;28;20238;-66
2021/08/08 07:22:16;;;;;;;4.87;2.97;;;16.70;99.90;;;;;;5050308;28;20625;-66
2021/08/08 07:24:44;;;;;;;5.83;3.13;;;16.80;99.90;;;;;;5069784;28;20219;-67
2021/08/08 07:27:11;;;;;;;3.20;2.90;;;16.80;99.90;;;;;;5070432;28;20472;-67
2021/08/08 07:29:37;;;;;;;4.53;2.80;;;16.90;99.90;;;;;;5070030;28;20500;-67
2021/08/08 07:32:05;;;;;;;5.20;3.00;;;16.90;99.90;;;;;;5069970;28;20515;-68
2021/08/08 07:34:31;;;;;;;3.00;2.80;;;16.90;99.90;;;;;;5053143;28;20454;-67
2021/08/08 07:36:57;;;;;;;4.50;3.30;;;17.00;99.90;;;;;;5070065;28;20457;-65
2021/08/08 07:39:23;;;;;;;4.40;3.23;;;17.00;99.90;;;;;;5065020;28;20220;-67
2021/08/08 07:41:48;;;;;;;3.63;2.53;;;17.10;99.90;;;;;;5056087;28;20518;-68
2021/08/08 07:44:14;;;;;;;3.80;3.07;;;17.10;99.90;;;;;;5068303;28;20323;-67
2021/08/08 07:46:40;;;;;;;2.80;2.60;;;17.10;99.90;;;;;;5053306;28;20218;-67
2021/08/08 07:49:06;;;;;;;3.83;2.93;;;17.20;99.90;;;;;;5068908;28;20522;-68
2021/08/08 07:51:32;;;;;;;3.50;2.33;;;17.20;99.90;;;;;;5071294;28;20223;-68
2021/08/08 07:53:58;;;;;;;2.50;2.30;;;17.20;99.90;;;;;;5069556;28;20566;-68
2021/08/08 07:56:24;;;;;;;5.43;2.80;;;17.20;99.90;;;;;;5053414;28;20211;-67
2021/08/08 07:58:49;;;;;;;4.03;2.33;;;17.20;99.90;;;;;;5052411;28;20244;-68
2021/08/08 08:01:16;;;;;;;2.73;2.17;;;17.20;99.90;;;;;;5065007;28;20298;-68
2021/08/08 08:03:42;;;;;;;3.07;2.77;;;17.30;99.90;;;;;;5049379;28;20472;-68
2021/08/08 08:06:08;;;;;;;3.87;1.97;;;17.40;99.90;;;;;;5069631;28;20944;-69
2021/08/08 08:08:33;;;;;;;3.83;2.57;;;17.40;99.90;;;;;;5069616;28;20215;-69
2021/08/08 08:11:00;;;;;;;3.47;2.70;;;17.50;99.90;;;;;;5068611;28;20215;-68
2021/08/08 08:13:25;;;;;;;2.83;2.63;;;17.50;99.90;;;;;;5052644;28;20481;-68
2021/08/08 08:15:51;;;;;;;2.97;2.73;;;17.50;99.90;;;;;;5066228;28;20450;-68
2021/08/08 08:18:17;;;;;;;3.90;2.43;;;17.50;99.90;;;;;;5051477;28;20254;-67
2021/08/08 08:20:43;;;;;;;2.87;2.10;;;17.50;99.90;;;;;;5051989;28;20217;-68
2021/08/08 08:23:09;;;;;;;33.57;4.10;;;17.60;99.90;;;;;;5070256;28;20562;-68
2021/08/08 08:25:34;;;;;;;2.87;2.20;;;17.60;99.90;;;;;;5041334;28;20460;-69
2021/08/08 08:28:00;;;;;;;5.53;2.37;;;17.60;99.90;;;;;;5049744;28;20223;-69
2021/08/08 08:30:26;;;;;;;3.13;2.17;;;17.70;99.90;;;;;;5067380;28;20215;-70
2021/08/08 08:32:52;;;;;;;5.80;2.87;;;17.80;99.90;;;;;;5068067;28;20223;-68
2021/08/08 08:35:18;;;;;;;3.27;2.53;;;17.80;99.90;;;;;;5069358;28;20288;-68
2021/08/08 08:37:43;;;;;;;4.23;2.30;;;17.90;99.90;;;;;;5068660;28;20250;-69
2021/08/08 08:40:10;;;;;;;2.00;1.80;;;18.00;99.90;;;;;;5061362;28;20693;-68
2021/08/08 08:42:45;;;;;;;2.93;2.00;;;18.10;99.90;;;;;;5051811;28;20508;-69
2021/08/08 08:45:11;;;;;;;2.73;2.00;;;18.20;99.90;;;;;;5051989;28;20804;-69
2021/08/08 08:47:40;;;;;;;2.60;2.20;;;18.20;99.90;;;;;;5049176;28;20446;-69
2021/08/08 08:50:08;;;;;;;2.37;2.17;;;18.30;99.90;;;;;;5053749;28;20743;-67
2021/08/08 08:52:35;;;;;;;4.07;2.30;;;18.30;99.90;;;;;;5068633;28;20492;-68
2021/08/08 08:55:03;;;;;;;6.23;2.20;;;18.30;99.90;;;;;;5051344;28;20481;-68
2021/08/08 08:57:30;;;;;;;6.40;2.00;;;18.30;99.90;;;;;;5068428;28;20469;-68
2021/08/08 08:59:59;;;;;;;2.63;2.17;;;18.40;99.90;;;;;;5067240;28;20464;-68
2021/08/08 09:02:25;;;;;;;2.03;1.90;;;18.50;99.90;;;;;;5049646;28;20545;-68
2021/08/08 09:04:52;;;;;;;2.23;2.00;;;18.60;99.90;;;;;;5032991;28;20461;-68
2021/08/08 09:07:17;;;;;;;6.77;2.60;;;18.70;99.90;;;;;;5032152;28;20442;-68
2021/08/08 09:09:44;;;;;;;4.43;2.80;;;18.70;99.90;;;;;;5049966;28;20233;-68
2021/08/08 09:12:10;;;;;;;5.57;2.57;;;18.80;99.90;;;;;;5051711;28;20984;-68
2021/08/08 09:14:36;;;;;;;8.87;3.10;;;18.80;99.90;;;;;;5068747;28;20305;-69
2021/08/08 09:17:02;;;;;;;3.03;2.03;;;18.90;99.90;;;;;;5067914;28;20220;-69
2021/08/08 09:19:36;;;;;;;2.60;2.40;;;19.00;99.90;;;;;;5069822;28;20450;-68
2021/08/08 09:22:06;;;;;;;3.30;1.97;;;19.00;99.90;;;;;;5052280;28;20442;-68
2021/08/08 09:24:39;;;;;;;2.70;1.60;;;19.00;99.90;;;;;;5068371;28;20953;-68
2021/08/08 09:27:10;;;;;;;2.37;1.90;;;19.10;99.90;;;;;;5050724;28;20449;-69
2021/08/08 09:29:39;;;;;;;2.17;2.00;;;19.20;99.90;;;;;;5051607;28;20449;-69
2021/08/08 09:32:06;;;;;;;2.20;2.00;;;19.20;99.90;;;;;;5049891;28;20529;-68
2021/08/08 09:34:34;;;;;;;2.97;2.20;;;19.20;99.90;;;;;;5051713;28;20481;-68
2021/08/08 09:37:02;;;;;;;5.67;2.23;;;19.30;99.90;;;;;;5068473;28;20473;-68
2021/08/08 09:39:43;;;;;;;3.97;1.90;;;19.30;99.90;;;;;;5048247;28;20977;-67
2021/08/08 09:42:29;;;;;;;5.30;2.30;;;19.30;99.90;;;;;;5064296;28;20457;-67
2021/08/08 09:45:06;;;;;;;3.33;1.83;;;19.40;99.90;;;;;;5047265;28;20484;-68
2021/08/08 09:47:46;;;;;;;3.50;1.87;;;19.40;99.90;;;;;;5051689;28;20842;-68
2021/08/08 09:50:20;;;;;;;2.30;2.10;;;19.50;99.90;;;;;;5067387;28;20460;-70
2021/08/08 09:52:51;;;;;;;1.80;1.70;;;19.50;99.90;;;;;;5067203;28;20464;-69
2021/08/08 09:55:19;;;;;;;2.70;1.90;;;19.50;99.90;;;;;;5067827;28;20465;-68
2021/08/08 09:57:45;;;;;;;1.73;1.60;;;19.40;99.90;;;;;;5050534;28;20444;-68
2021/08/08 10:00:29;;;;;;;3.97;1.90;;;19.40;99.90;;;;;;5048544;28;20462;-67
2021/08/08 10:02:56;;;;;;;1.50;1.40;;;19.40;99.90;;;;;;5068223;28;20220;-68
2021/08/08 10:05:23;;;;;;;3.87;1.67;;;19.50;99.90;;;;;;5071529;28;20509;-66
2021/08/08 10:07:50;;;;;;;2.93;1.90;;;19.50;99.90;;;;;;5068289;28;20452;-68
2021/08/08 10:10:17;;;;;;;3.73;1.80;;;19.50;99.90;;;;;;5071670;28;20480;-69
2021/08/08 10:12:43;;;;;;;1.87;1.77;;;19.50;99.90;;;;;;5054573;28;20457;-69
2021/08/08 10:15:10;;;;;;;3.03;1.90;;;19.50;99.90;;;;;;5054803;28;20468;-68
2021/08/08 10:17:38;;;;;;;4.70;2.47;;;19.50;99.90;;;;;;5065186;28;20207;-69
2021/08/08 10:20:06;;;;;;;5.17;2.10;;;19.50;99.90;;;;;;5050355;28;20814;-70
2021/08/08 10:22:34;;;;;;;4.03;2.60;;;19.60;99.90;;;;;;5050836;28;20453;-68
2021/08/08 10:25:00;;;;;;;7.63;1.63;;;19.60;99.90;;;;;;5050443;28;20465;-70
2021/08/08 10:27:29;;;;;;;3.00;1.90;;;19.70;99.90;;;;;;5061037;28;20535;-67
2021/08/08 10:29:57;;;;;;;2.57;1.70;;;19.80;99.90;;;;;;5052559;28;20474;-68
2021/08/08 10:32:27;;;;;;;2.90;1.80;;;20.00;99.90;;;;;;5053432;28;20563;-69
2021/08/08 10:34:53;;;;;;;2.23;1.70;;;20.10;99.90;;;;;;5053913;28;20470;-68
2021/08/08 10:37:22;;;;;;;1.83;1.70;;;20.10;99.90;;;;;;5069296;28;20468;-68
2021/08/08 10:39:49;;;;;;;2.47;2.07;;;20.20;99.90;;;;;;5065072;28;20482;-68
2021/08/08 10:42:15;;;;;;;3.27;2.30;;;20.20;99.90;;;;;;5065460;28;20446;-69
2021/08/08 10:44:47;;;;;;;2.17;1.90;;;20.20;99.90;;;;;;5039885;28;20560;-68
2021/08/08 10:47:33;;;;;;;2.40;2.20;;;20.20;99.90;;;;;;5069931;28;20489;-69
2021/08/08 10:50:09;;;;;;;2.60;2.00;;;20.20;99.90;;;;;;5062477;28;20467;-71
2021/08/08 10:52:40;;;;;;;3.07;2.10;;;20.20;99.90;;;;;;5069598;28;20475;-69
2021/08/08 10:55:07;;;;;;;2.70;2.50;;;20.20;99.90;;;;;;5060320;28;20454;-68
2021/08/08 10:57:44;;;;;;;3.27;2.53;;;20.30;99.90;;;;;;5069616;28;20888;-70
2021/08/08 11:00:15;;;;;;;3.27;2.97;;;20.30;99.90;;;;;;5034754;28;20465;-69
2021/08/08 11:02:44;;;;;;;10.73;3.47;;;20.40;99.90;;;;;;5070287;28;20518;-69
2021/08/08 11:05:12;;;;;;;4.87;2.87;;;20.60;99.90;;;;;;5070257;28;20457;-68
2021/08/08 11:07:38;;;;;;;5.07;3.37;;;20.60;99.90;;;;;;5049790;28;20454;-69
2021/08/08 11:10:05;;;;;;;4.10;3.60;;;20.70;99.90;;;;;;5065920;28;20897;-68
2021/08/08 11:12:36;;;;;;;3.20;3.00;;;20.80;99.90;;;;;;5065446;28;20458;-68
2021/08/08 11:15:02;;;;;;;3.10;2.70;;;20.90;99.90;;;;;;5048891;28;20531;-69
2021/08/08 11:17:28;;;;;;;5.00;3.17;;;20.90;99.90;;;;;;5062277;28;20536;-69
2021/08/08 11:19:57;;;;;;;4.73;2.90;;;21.00;99.90;;;;;;5069397;28;20584;-68
2021/08/08 11:22:23;;;;;;;4.03;2.50;;;21.00;99.90;;;;;;5064529;28;20746;-68
2021/08/08 11:25:00;;;;;;;2.97;2.60;;;21.00;99.90;;;;;;5045542;28;20468;-70
2021/08/08 11:27:31;;;;;;;4.20;2.50;;;21.00;99.90;;;;;;5069204;28;20892;-69
2021/08/08 11:29:57;;;;;;;2.77;1.80;;;21.00;99.90;;;;;;5067861;28;20607;-69
2021/08/08 11:32:30;;;;;;;2.47;2.27;;;21.00;99.90;;;;;;5069347;28;20540;-69
2021/08/08 11:35:16;;;;;;;4.07;2.00;;;21.00;99.90;;;;;;5068855;28;20346;-68
2021/08/08 11:37:48;;;;;;;2.80;2.10;;;21.10;99.90;;;;;;5052735;28;20485;-71
2021/08/08 11:40:31;;;;;;;3.33;1.90;;;21.10;99.90;;;;;;5057512;28;20469;-69
2021/08/08 11:43:03;;;;;;;2.33;2.13;;;21.10;99.90;;;;;;5067261;28;20867;-68
2021/08/08 11:45:37;;;;;;;3.07;2.63;;;21.20;99.90;;;;;;5068362;28;21024;-70
2021/08/08 11:48:04;;;;;;;5.50;2.90;;;21.20;99.90;;;;;;5048676;28;20454;-69
2021/08/08 11:50:30;;;;;;;2.93;2.70;;;21.20;99.90;;;;;;5064016;28;20457;-69
2021/08/08 11:53:00;;;;;;;2.40;2.20;;;21.30;99.90;;;;;;5064119;28;20462;-69
2021/08/08 11:55:29;;;;;;;2.70;2.20;;;21.40;99.90;;;;;;5042827;28;20531;-71
2021/08/08 11:58:08;;;;;;;2.07;1.90;;;21.50;99.90;;;;;;5062549;28;20595;-72
2021/08/08 12:00:36;;;;;;;2.20;2.00;;;21.60;99.90;;;;;;5043688;28;20458;-69
2021/08/08 12:03:03;;;;;;;1.80;1.70;;;21.70;99.90;;;;;;5062395;28;20461;-69
2021/08/08 12:05:29;;;;;;;3.30;2.77;;;21.70;99.90;;;;;;5062861;28;20489;-69
2021/08/08 12:07:55;;;;;;;5.97;2.10;;;21.80;99.90;;;;;;5044213;28;20466;-70
2021/08/08 12:10:54;;;;;;;3.30;2.03;;;21.90;99.90;;;;;;5065482;28;20504;-70
2021/08/08 12:13:20;;;;;;;3.53;2.20;;;22.00;99.90;;;;;;5043399;28;20231;-70
2021/08/08 12:15:46;;;;;;;3.20;2.90;;;22.00;99.90;;;;;;5027160;28;20519;-69
2021/08/08 12:18:14;;;;;;;2.50;2.30;;;22.10;99.90;;;;;;5063794;28;20461;-69
2021/08/08 12:20:42;;;;;;;5.23;2.17;;;22.20;99.90;;;;;;5061765;28;20226;-68
2021/08/08 12:23:14;;;;;;;2.70;2.17;;;22.30;99.90;;;;;;5045036;28;20463;-69
2021/08/08 12:25:43;;;;;;;4.13;2.80;;;22.40;99.90;;;;;;5059375;28;20507;-71
2021/08/08 12:28:20;;;;;;;4.03;2.10;;;22.60;99.90;;;;;;5060031;28;20957;-69
2021/08/08 12:30:46;;;;;;;3.10;2.33;;;22.60;99.90;;;;;;5024382;28;21094;-69
2021/08/08 12:33:15;;;;;;;5.90;2.23;;;22.70;99.90;;;;;;5045816;28;20461;-69
2021/08/08 12:35:43;;;;;;;2.80;2.53;;;22.70;99.90;;;;;;5062541;28;20717;-70
2021/08/08 12:38:13;;;;;;;2.53;2.23;;;22.80;99.90;;;;;;5058204;28;20536;-69
2021/08/08 12:40:53;;;;;;;2.50;2.30;;;22.80;99.90;;;;;;5064820;28;20486;-69
2021/08/08 12:43:30;;;;;;;2.57;2.37;;;22.80;99.90;;;;;;5059692;28;20457;-69
2021/08/08 12:45:55;;;;;;;4.30;2.47;;;22.70;99.90;;;;;;5063327;28;20456;-70
2021/08/08 12:48:29;;;;;;;5.30;2.60;;;22.70;99.90;;;;;;5045773;28;20482;-69
2021/08/08 12:50:55;;;;;;;5.20;2.10;;;22.60;99.90;;;;;;5054253;28;20211;-68